Time;durP1;ratioP1;P1;durP2;ratioP2;P2;SDS_P1;SDS_P2;PMS_P1;PMS_P2;Temp;Humidity;BMP_temperature;BMP_pressure;BME280_temperature;BME280_humidity;BME280_pressure;Samples;Min_cycle;Max_cycle;Signal;HPM_P1;HPM_P2
2022/06/23 00:01:27;;;;;;;;;;;;;;;27.39;34.54;100194.56;5058322;28;1902;-36
2022/06/23 00:03:54;;;;;;;;;;;;;;;27.43;34.88;100190.41;5040538;28;1179;-35
2022/06/23 00:06:39;;;;;;;;;;;;;;;27.39;35.12;100195.38;5040442;28;1181;-38
2022/06/23 00:09:23;;;;;;;;;;;;;;;27.41;34.58;100191.66;5056649;28;1564;-37
2022/06/23 00:11:49;;;;;;;;;;;;;;;27.37;34.96;100193.91;5069994;28;1199;-37
2022/06/23 00:14:15;;;;;;;;;;;;;;;27.37;34.45;100191.22;5070816;28;1167;-38
2022/06/23 00:16:40;;;;;;;;;;;;;;;27.43;34.42;100189.56;5057957;28;1132;-37
2022/06/23 00:19:07;;;;;;;;;;;;;;;27.33;34.67;100187.22;5057975;28;1179;-35
2022/06/23 00:21:33;;;;;;;;;;;;;;;27.33;34.65;100188.06;5056992;28;1909;-38
2022/06/23 00:24:00;;;;;;;;;;;;;;;27.34;34.73;100187.03;5059397;28;1195;-38
2022/06/23 00:26:26;;;;;;;;;;;;;;;27.32;34.34;100186.41;5078296;28;1135;-37
2022/06/23 00:29:00;;;;;;;;;;;;;;;27.35;34.59;100188.72;5062717;28;1159;-35
2022/06/23 00:31:30;;;;;;;;;;;;;;;27.36;34.37;100174.16;5040425;28;1184;-38
2022/06/23 00:33:56;;;;;;;;;;;;;;;27.36;34.39;100176.06;5057836;28;1128;-38
2022/06/23 00:36:25;;;;;;;;;;;;;;;27.40;34.25;100171.91;5040335;28;1059;-35
2022/06/23 00:38:50;;;;;;;;;;;;;;;27.34;34.32;100170.81;5076874;28;972;-35
2022/06/23 00:41:16;;;;;;;;;;;;;;;27.34;34.40;100173.53;5058328;28;1963;-35
2022/06/23 00:43:43;;;;;;;;;;;;;;;27.35;34.64;100175.22;5039626;28;1207;-35
2022/06/23 00:46:09;;;;;;;;;;;;;;;27.35;34.72;100177.91;5040143;28;1152;-38
2022/06/23 00:48:42;;;;;;;;;;;;;;;27.34;34.86;100183.53;5039748;28;1176;-37
2022/06/23 00:51:14;;;;;;;;;;;;;;;27.34;34.64;100183.53;5059838;28;1206;-37
2022/06/23 00:53:45;;;;;;;;;;;;;;;27.32;34.61;100186.41;5067982;28;1135;-35
2022/06/23 00:56:29;;;;;;;;;;;;;;;27.31;34.58;100179.34;5057341;28;1234;-36
2022/06/23 00:58:56;;;;;;;;;;;;;;;27.18;34.70;100160.34;5057109;28;1160;-36
2022/06/23 01:01:42;;;;;;;;;;;;;;;27.31;34.66;100167.72;5039209;28;1960;-35
2022/06/23 01:04:08;;;;;;;;;;;;;;;27.34;34.75;100165.44;5037446;28;943;-39
2022/06/23 01:06:40;;;;;;;;;;;;;;;27.33;34.79;100177.28;5068846;28;1203;-36
2022/06/23 01:09:05;;;;;;;;;;;;;;;27.30;34.46;100177.69;5039063;28;1168;-37
2022/06/23 01:11:30;;;;;;;;;;;;;;;27.32;34.50;100178.31;5056743;28;1152;-37
2022/06/23 01:13:59;;;;;;;;;;;;;;;27.26;34.79;100170.97;5056696;28;1176;-37
2022/06/23 01:16:26;;;;;;;;;;;;;;;27.33;34.69;100177.28;5053391;28;962;-37
2022/06/23 01:19:00;;;;;;;;;;;;;;;27.32;34.58;100177.47;5041711;28;1120;-39
2022/06/23 01:21:42;;;;;;;;;;;;;;;27.34;34.85;100180.81;5056780;28;1906;-37
2022/06/23 01:24:16;;;;;;;;;;;;;;;27.31;34.62;100184.72;5056353;28;1227;-38
2022/06/23 01:26:41;;;;;;;;;;;;;;;27.33;34.81;100187.22;5056821;28;1440;-36
2022/06/23 01:29:19;;;;;;;;;;;;;;;27.35;34.70;100195.97;5058915;28;1063;-36
2022/06/23 01:31:45;;;;;;;;;;;;;;;27.36;34.62;100201.19;5056757;28;1125;-36
2022/06/23 01:34:17;;;;;;;;;;;;;;;27.33;34.49;100198.88;5038573;28;1188;-38
2022/06/23 01:36:44;;;;;;;;;;;;;;;27.36;34.76;100194.97;5039941;28;839;-37
2022/06/23 01:39:18;;;;;;;;;;;;;;;27.31;34.72;100198.22;5056637;28;1243;-38
2022/06/23 01:41:48;;;;;;;;;;;;;;;27.28;34.65;100214.84;5051384;28;1969;-35
2022/06/23 01:44:13;;;;;;;;;;;;;;;27.27;34.96;100226.69;5042790;28;1184;-31
2022/06/23 01:46:39;;;;;;;;;;;;;;;27.35;34.79;100222.97;5056258;28;1140;-38
2022/06/23 01:49:04;;;;;;;;;;;;;;;27.31;34.72;100235.22;5056107;28;1144;-37
2022/06/23 01:51:30;;;;;;;;;;;;;;;27.32;34.81;100234.19;5067586;28;1192;-36
2022/06/23 01:54:06;;;;;;;;;;;;;;;27.34;34.76;100237.53;5072734;28;1171;-36
2022/06/23 01:56:31;;;;;;;;;;;;;;;27.31;34.82;100235.22;5071365;28;1163;-37
2022/06/23 01:59:02;;;;;;;;;;;;;;;27.28;34.66;100235.63;5056154;28;1207;-37
2022/06/23 02:01:37;;;;;;;;;;;;;;;27.26;34.71;100239.34;5055757;28;1972;-35
2022/06/23 02:04:07;;;;;;;;;;;;;;;27.28;34.96;100247.25;5055483;28;1104;-36
2022/06/23 02:06:38;;;;;;;;;;;;;;;27.24;34.72;100241.38;5046718;28;1105;-34
2022/06/23 02:09:11;;;;;;;;;;;;;;;27.23;34.98;100249.69;5038321;28;974;-37
2022/06/23 02:11:39;;;;;;;;;;;;;;;27.18;34.95;100241.34;5037848;28;1140;-35
2022/06/23 02:14:19;;;;;;;;;;;;;;;27.22;34.62;100234.53;5055730;28;1152;-37
2022/06/23 02:17:01;;;;;;;;;;;;;;;27.22;34.49;100240.78;5038226;28;1124;-35
2022/06/23 02:19:44;;;;;;;;;;;;;;;27.17;34.74;100245.09;5046751;28;1131;-34
2022/06/23 02:22:15;;;;;;;;;;;;;;;27.17;34.83;100242.38;5039995;28;1058;-34
2022/06/23 02:24:43;;;;;;;;;;;;;;;27.18;34.58;100242.19;5056112;28;1143;-37
2022/06/23 02:27:15;;;;;;;;;;;;;;;27.23;34.54;100247.00;5055643;28;1184;-38
2022/06/23 02:30:00;;;;;;;;;;;;;;;27.21;34.50;100239.09;5055810;28;1183;-35
2022/06/23 02:32:29;;;;;;;;;;;;;;;27.19;34.28;100243.88;5037869;28;1208;-34
2022/06/23 02:35:12;;;;;;;;;;;;;;;27.24;34.30;100241.38;5055239;28;1207;-38
2022/06/23 02:37:47;;;;;;;;;;;;;;;27.25;34.11;100240.38;5055618;28;1171;-34
2022/06/23 02:40:17;;;;;;;;;;;;;;;27.24;34.17;100233.28;5056139;28;1893;-35
2022/06/23 02:42:43;;;;;;;;;;;;;;;27.23;34.15;100241.59;5055494;28;1187;-38
2022/06/23 02:45:08;;;;;;;;;;;;;;;27.23;34.48;100241.59;5066185;28;876;-37
2022/06/23 02:47:33;;;;;;;;;;;;;;;27.23;34.65;100237.03;5060450;28;1225;-36
2022/06/23 02:50:02;;;;;;;;;;;;;;;27.20;34.36;100232.03;5055272;28;1163;-37
2022/06/23 02:52:42;;;;;;;;;;;;;;;27.19;34.20;100232.22;5069254;28;1279;-36
2022/06/23 02:55:35;;;;;;;;;;;;;;;27.14;34.12;100236.34;5055462;28;1097;-35
2022/06/23 02:58:11;;;;;;;;;;;;;;;27.26;34.54;100233.94;5039876;28;2614;-35
2022/06/23 03:00:45;;;;;;;;;;;;;;;27.28;34.10;100233.75;5072436;28;1957;-37
2022/06/23 03:03:16;;;;;;;;;;;;;;;27.23;34.36;100233.50;5052871;28;1831;-35
2022/06/23 03:05:44;;;;;;;;;;;;;;;26.90;34.27;100240.28;5045809;28;1990;-35
2022/06/23 03:08:12;;;;;;;;;;;;;;;26.76;32.63;100236.59;5069511;28;2128;-35
2022/06/23 03:10:42;;;;;;;;;;;;;;;26.54;32.17;100236.63;5051853;28;2065;-31
2022/06/23 03:13:07;;;;;;;;;;;;;;;26.72;33.13;100241.56;5052591;28;2239;-33
2022/06/23 03:15:37;;;;;;;;;;;;;;;26.67;31.89;100246.72;5072859;28;1076;-34
2022/06/23 03:18:04;;;;;;;;;;;;;;;26.53;32.64;100248.41;5068313;28;790;-32
2022/06/23 03:20:44;;;;;;;;;;;;;;;26.34;32.60;100252.56;5051918;28;1969;-35
2022/06/23 03:23:27;;;;;;;;;;;;;;;26.30;33.85;100260.19;5061988;28;821;-34
2022/06/23 03:25:55;;;;;;;;;;;;;;;26.26;34.40;100251.63;5074645;28;1016;-31
2022/06/23 03:28:29;;;;;;;;;;;;;;;26.26;35.00;100262.41;5059177;28;1060;-35
2022/06/23 03:31:10;;;;;;;;;;;;;;;26.28;34.74;100268.47;5075584;28;1088;-34
2022/06/23 03:33:38;;;;;;;;;;;;;;;26.32;35.04;100284.25;5075644;28;981;-33
2022/06/23 03:36:16;;;;;;;;;;;;;;;26.34;33.87;100280.34;5055895;28;1016;-32
2022/06/23 03:41:36;;;;;;;;;;;;;;;26.16;35.55;100289.66;5071745;28;1906;-36
2022/06/23 03:44:17;;;;;;;;;;;;;;;25.87;35.51;100277.91;5055185;28;2269;-34
2022/06/23 03:46:46;;;;;;;;;;;;;;;25.89;35.37;100291.19;5074839;28;973;-37
2022/06/23 03:49:14;;;;;;;;;;;;;;;24.83;37.33;100285.50;5053935;28;875;-31
2022/06/23 03:51:54;;;;;;;;;;;;;;;23.95;40.67;100283.72;5075053;28;1000;-29
2022/06/23 03:54:23;;;;;;;;;;;;;;;23.89;39.58;100292.47;5055084;28;1008;-31
2022/06/23 03:56:56;;;;;;;;;;;;;;;24.27;38.43;100290.03;5058467;28;1179;-33
2022/06/23 03:59:26;;;;;;;;;;;;;;;23.63;39.98;100299.75;5059123;28;1498;-29
2022/06/23 04:01:51;;;;;;;;;;;;;;;24.91;38.51;100298.06;5054317;28;1961;-37
2022/06/23 04:04:18;;;;;;;;;;;;;;;25.80;36.78;100296.66;5077800;28;1037;-35
2022/06/23 04:06:44;;;;;;;;;;;;;;;26.04;34.97;100308.16;5072431;28;977;-37
2022/06/23 04:09:10;;;;;;;;;;;;;;;25.99;34.44;100310.56;5073305;28;1484;-34
2022/06/23 04:11:46;;;;;;;;;;;;;;;26.21;34.89;100315.25;5076791;28;1043;-33
2022/06/23 04:14:14;;;;;;;;;;;;;;;26.32;34.82;100317.44;5052241;28;2380;-31
2022/06/23 04:16:39;;;;;;;;;;;;;;;26.53;34.81;100314.00;5059575;28;1138;-33
2022/06/23 04:19:11;;;;;;;;;;;;;;;26.74;35.15;100315.03;5077857;28;1166;-32
2022/06/23 04:21:39;;;;;;;;;;;;;;;26.80;34.91;100310.75;5058871;28;1919;-35
2022/06/23 04:24:04;;;;;;;;;;;;;;;26.84;34.64;100312.03;5053370;28;1064;-37
2022/06/23 04:26:31;;;;;;;;;;;;;;;26.86;34.59;100317.25;5053833;28;973;-37
2022/06/23 04:29:07;;;;;;;;;;;;;;;26.94;34.60;100319.84;5053850;28;1045;-35
2022/06/23 04:31:34;;;;;;;;;;;;;;;27.04;34.44;100314.16;5073412;28;1111;-34
2022/06/23 04:34:00;;;;;;;;;;;;;;;27.06;34.63;100306.66;5077717;28;1063;-35
2022/06/23 04:36:26;;;;;;;;;;;;;;;26.98;34.81;100306.75;5072777;28;1139;-32
2022/06/23 04:39:00;;;;;;;;;;;;;;;26.91;34.95;100301.31;5075912;28;1052;-32
2022/06/23 04:41:25;;;;;;;;;;;;;;;26.94;34.97;100306.34;5076475;28;1906;-31
2022/06/23 04:43:57;;;;;;;;;;;;;;;27.04;34.62;100313.31;5077251;28;2618;-34
2022/06/23 04:46:27;;;;;;;;;;;;;;;27.12;34.89;100303.22;5076569;28;1099;-33
2022/06/23 04:48:57;;;;;;;;;;;;;;;27.20;34.44;100304.09;5071314;28;981;-31
2022/06/23 04:51:30;;;;;;;;;;;;;;;27.04;34.52;100300.66;5051754;28;986;-32
2022/06/23 04:53:58;;;;;;;;;;;;;;;27.17;34.15;100310.72;5072707;28;977;-35
2022/06/23 04:56:30;;;;;;;;;;;;;;;27.25;33.79;100305.19;5076890;28;981;-36
2022/06/23 04:58:56;;;;;;;;;;;;;;;27.38;33.65;100314.41;5074121;28;1012;-34
2022/06/23 05:01:22;;;;;;;;;;;;;;;27.42;33.11;100304.06;5057774;28;1959;-33
2022/06/23 05:03:49;;;;;;;;;;;;;;;27.46;33.50;100314.28;5058245;28;1096;-34
2022/06/23 05:06:21;;;;;;;;;;;;;;;27.40;33.79;100317.75;5052326;28;1086;-34
2022/06/23 05:08:47;;;;;;;;;;;;;;;27.34;33.69;100310.44;5074816;28;1115;-31
2022/06/23 05:11:13;;;;;;;;;;;;;;;27.39;32.88;100308.00;5058412;28;1072;-34
2022/06/23 05:13:44;;;;;;;;;;;;;;;27.45;32.51;100323.41;5071691;28;2520;-29
2022/06/23 05:16:10;;;;;;;;;;;;;;;27.54;33.12;100325.97;5058178;28;1048;-31
2022/06/23 05:18:43;;;;;;;;;;;;;;;27.36;33.04;100321.91;5055005;28;911;-33
2022/06/23 05:21:10;;;;;;;;;;;;;;;27.48;33.38;100319.47;5066463;28;1906;-30
2022/06/23 05:23:38;;;;;;;;;;;;;;;27.54;33.14;100325.97;5076783;28;993;-32
2022/06/23 05:26:04;;;;;;;;;;;;;;;27.55;32.75;100328.47;5071941;28;1060;-33
2022/06/23 05:28:31;;;;;;;;;;;;;;;27.62;32.85;100331.22;5076368;28;1059;-32
2022/06/23 05:30:59;;;;;;;;;;;;;;;27.68;32.61;100329.59;5065748;28;1072;-33
2022/06/23 05:33:32;;;;;;;;;;;;;;;27.59;32.80;100326.22;5076192;28;1225;-32
2022/06/23 05:36:07;;;;;;;;;;;;;;;27.57;33.60;100322.88;5050895;28;1265;-34
2022/06/23 05:38:35;;;;;;;;;;;;;;;27.70;32.78;100324.88;5058282;28;1315;-35
2022/06/23 05:41:27;;;;;;;;;;;;;;;27.83;32.74;100329.50;5070231;28;1961;-29
2022/06/23 05:43:54;;;;;;;;;;;;;;;27.65;32.68;100328.13;5031187;28;1445;-33
2022/06/23 05:46:20;;;;;;;;;;;;;;;27.62;33.56;100325.81;5056381;28;997;-32
2022/06/23 05:48:47;;;;;;;;;;;;;;;27.72;32.58;100328.22;5055592;28;1079;-31
2022/06/23 05:51:17;;;;;;;;;;;;;;;27.79;31.52;100331.81;5070385;28;1000;-34
2022/06/23 05:53:48;;;;;;;;;;;;;;;27.67;32.31;100330.63;5073738;28;1088;-38
2022/06/23 05:56:20;;;;;;;;;;;;;;;27.77;32.50;100336.56;5075887;28;1274;-32
2022/06/23 05:58:48;;;;;;;;;;;;;;;27.65;32.49;100338.94;5075270;28;1095;-33
2022/06/23 06:01:17;;;;;;;;;;;;;;;27.84;32.55;100339.31;5068430;28;1890;-34
2022/06/23 06:03:44;;;;;;;;;;;;;;;28.03;32.74;100336.94;5069841;28;985;-36
2022/06/23 06:06:09;;;;;;;;;;;;;;;27.68;31.91;100349.38;5057636;28;1163;-30
2022/06/23 06:09:35;;;;;;;;;;;;;;;27.46;32.53;100348.56;5050515;28;1255;-33
2022/06/23 06:11:23;;;;;;;;;;;;;;;27.44;31.94;100362.28;5055811;28;1315;-35
2022/06/23 06:13:48;;;;;;;;;;;;;;;27.40;32.28;100352.88;5054031;28;1156;-35
2022/06/23 06:16:13;;;;;;;;;;;;;;;27.47;32.27;100364.59;5054673;28;1001;-34
2022/06/23 06:18:39;;;;;;;;;;;;;;;27.38;32.14;100352.22;5073329;28;1230;-33
2022/06/23 06:21:05;;;;;;;;;;;;;;;27.66;31.65;100372.22;5067628;28;1913;-31
2022/06/23 06:23:33;;;;;;;;;;;;;;;27.84;32.00;100374.44;5055478;28;1136;-32
2022/06/23 06:25:58;;;;;;;;;;;;;;;27.84;32.48;100375.25;5075751;28;1009;-32
2022/06/23 06:28:28;;;;;;;;;;;;;;;27.95;32.21;100365.78;5055381;28;1056;-31
2022/06/23 06:30:56;;;;;;;;;;;;;;;27.95;31.94;100357.69;5069199;28;1001;-33
2022/06/23 06:33:33;;;;;;;;;;;;;;;27.95;32.71;100351.44;5048962;28;1200;-35
2022/06/23 06:35:58;;;;;;;;;;;;;;;28.04;32.70;100352.13;5064189;28;958;-31
2022/06/23 06:38:24;;;;;;;;;;;;;;;27.93;32.68;100359.75;5075369;28;945;-32
2022/06/23 06:40:50;;;;;;;;;;;;;;;27.99;32.76;100352.72;5051948;28;1970;-32
2022/06/23 06:43:16;;;;;;;;;;;;;;;28.09;32.85;100347.75;5057734;28;1048;-36
2022/06/23 06:45:41;;;;;;;;;;;;;;;28.06;32.72;100347.34;5070186;28;1219;-36
2022/06/23 06:48:12;;;;;;;;;;;;;;;28.12;32.76;100351.94;5070089;28;950;-31
2022/06/23 06:50:39;;;;;;;;;;;;;;;28.26;32.80;100355.53;5046056;28;1044;-31
2022/06/23 06:53:06;;;;;;;;;;;;;;;28.19;32.68;100350.13;5045214;28;1055;-32
2022/06/23 06:55:38;;;;;;;;;;;;;;;28.20;32.90;100354.50;5071123;28;1150;-33
2022/06/23 06:58:07;;;;;;;;;;;;;;;28.22;32.59;100359.69;5069876;28;1003;-33
2022/06/23 07:00:43;;;;;;;;;;;;;;;28.21;32.97;100355.34;5068025;28;1965;-32
2022/06/23 07:03:08;;;;;;;;;;;;;;;28.30;33.28;100358.69;5055044;28;1506;-36
2022/06/23 07:05:37;;;;;;;;;;;;;;;28.28;32.92;100356.19;5053808;28;975;-35
2022/06/23 07:08:21;;;;;;;;;;;;;;;28.26;33.16;100357.44;5076651;28;1047;-34
2022/06/23 07:10:48;;;;;;;;;;;;;;;28.18;33.12;100361.13;5077382;28;1027;-33
2022/06/23 07:13:39;;;;;;;;;;;;;;;28.21;33.28;100366.97;5055723;28;942;-34
2022/06/23 07:16:11;;;;;;;;;;;;;;;28.26;32.74;100362.84;5068903;28;1206;-32
2022/06/23 07:18:38;;;;;;;;;;;;;;;27.94;31.39;100352.47;5060721;28;1001;-34
2022/06/23 07:21:09;;;;;;;;;;;;;;;27.24;30.02;100352.09;5049288;28;1980;-32
2022/06/23 07:23:35;;;;;;;;;;;;;;;27.71;30.72;100345.47;5078238;28;1037;-33
2022/06/23 07:26:23;;;;;;;;;;;;;;;28.03;31.38;100345.88;5075852;28;953;-33
2022/06/23 07:28:50;;;;;;;;;;;;;;;28.25;32.00;100351.19;5064976;28;1316;-33
2022/06/23 07:31:17;;;;;;;;;;;;;;;28.19;32.14;100347.44;5057796;28;1132;-34
2022/06/23 07:33:44;;;;;;;;;;;;;;;28.28;32.41;100347.25;5054967;28;1016;-33
2022/06/23 07:36:14;;;;;;;;;;;;;;;28.23;32.31;100353.25;5072583;28;1012;-36
2022/06/23 07:38:42;;;;;;;;;;;;;;;28.29;32.44;100357.88;5078104;28;953;-32
2022/06/23 07:41:07;;;;;;;;;;;;;;;28.39;32.08;100362.94;5057994;28;1976;-33
2022/06/23 07:43:38;;;;;;;;;;;;;;;28.30;32.25;100373.06;5076227;28;1024;-34
2022/06/23 07:46:04;;;;;;;;;;;;;;;28.33;32.54;100371.84;5077708;28;1143;-37
2022/06/23 07:48:32;;;;;;;;;;;;;;;28.23;32.28;100366.75;5078391;28;969;-34
2022/06/23 07:50:58;;;;;;;;;;;;;;;28.31;32.66;100365.78;5054299;28;1101;-32
2022/06/23 07:53:40;;;;;;;;;;;;;;;28.35;32.02;100361.66;5059018;28;1087;-30
2022/06/23 07:56:05;;;;;;;;;;;;;;;28.27;32.83;100361.78;5053979;28;966;-32
2022/06/23 07:58:31;;;;;;;;;;;;;;;28.34;33.25;100368.94;5056248;28;997;-30
2022/06/23 08:01:02;;;;;;;;;;;;;;;28.27;32.42;100359.09;5059798;28;1902;-34
2022/06/23 08:03:29;;;;;;;;;;;;;;;28.35;32.86;100358.94;5052773;28;1143;-30
2022/06/23 08:05:55;;;;;;;;;;;;;;;28.34;32.19;100358.09;5054673;28;1001;-30
2022/06/23 08:08:25;;;;;;;;;;;;;;;28.36;33.05;100356.03;5058936;28;1063;-31
2022/06/23 08:12:53;;;;;;;;;;;;;;;28.38;32.84;100355.03;5055217;28;1234;-33
2022/06/23 08:13:36;;;;;;;;;;;;;;;28.45;32.96;100351.31;5057363;28;1040;-30
2022/06/23 08:18:47;;;;;;;;;;;;;;;28.44;33.20;100340.69;5077680;28;1083;-31
2022/06/23 08:21:17;;;;;;;;;;;;;;;28.43;33.15;100339.84;5055453;28;1968;-35
2022/06/23 08:23:54;;;;;;;;;;;;;;;28.39;33.11;100335.03;5074952;28;1076;-31
2022/06/23 08:26:20;;;;;;;;;;;;;;;28.47;32.64;100341.13;5073889;28;953;-35
2022/06/23 08:28:45;;;;;;;;;;;;;;;28.52;33.17;100331.56;5059385;28;1049;-31
2022/06/23 08:31:11;;;;;;;;;;;;;;;28.54;32.78;100324.06;5073226;28;1167;-31
2022/06/23 08:33:36;;;;;;;;;;;;;;;28.47;32.90;100321.34;5074890;28;1000;-32
2022/06/23 08:36:12;;;;;;;;;;;;;;;28.65;33.49;100315.34;5071303;28;1174;-31
2022/06/23 08:38:49;;;;;;;;;;;;;;;28.72;32.79;100318.94;5053950;28;1044;-33
2022/06/23 08:41:33;;;;;;;;;;;;;;;28.68;33.25;100304.13;5057927;28;1890;-33
2022/06/23 08:43:58;;;;;;;;;;;;;;;28.66;32.42;100311.59;5053500;28;977;-32
2022/06/23 08:46:26;;;;;;;;;;;;;;;28.70;32.78;100293.09;5071400;28;906;-31
2022/06/23 08:48:52;;;;;;;;;;;;;;;28.59;31.86;100300.75;5077460;28;1032;-32
2022/06/23 08:51:18;;;;;;;;;;;;;;;28.64;31.63;100293.91;5066405;28;1143;-33
2022/06/23 08:54:01;;;;;;;;;;;;;;;28.72;31.00;100301.84;5072874;28;1052;-33
2022/06/23 08:56:29;;;;;;;;;;;;;;;28.75;31.99;100301.44;5074287;28;1151;-30
2022/06/23 08:58:57;;;;;;;;;;;;;;;28.71;32.19;100306.41;5056630;28;1099;-35
2022/06/23 09:01:29;;;;;;;;;;;;;;;28.76;32.31;100299.56;5058086;28;1957;-33
2022/06/23 09:04:03;;;;;;;;;;;;;;;28.75;31.90;100303.28;5058137;28;1013;-31
2022/06/23 09:06:40;;;;;;;;;;;;;;;28.85;32.03;100299.16;5075013;28;965;-33
2022/06/23 09:09:08;;;;;;;;;;;;;;;28.83;31.66;100295.81;5070796;28;1027;-31
2022/06/23 09:11:34;;;;;;;;;;;;;;;28.88;31.80;100297.91;5071478;28;993;-31
2022/06/23 09:14:28;;;;;;;;;;;;;;;28.88;32.11;100288.97;5073522;28;997;-36
2022/06/23 09:17:08;;;;;;;;;;;;;;;28.95;31.93;100289.78;4972104;28;1172;-33
2022/06/23 09:19:41;;;;;;;;;;;;;;;28.94;32.27;100288.97;5053563;28;1072;-32
2022/06/23 09:22:15;;;;;;;;;;;;;;;28.95;32.09;100290.63;5053627;28;1965;-37
2022/06/23 09:24:40;;;;;;;;;;;;;;;28.98;32.23;100280.47;5073467;28;1039;-34
2022/06/23 09:27:05;;;;;;;;;;;;;;;29.00;32.21;100281.91;5075038;28;1012;-31
2022/06/23 09:29:49;;;;;;;;;;;;;;;29.00;32.07;100281.06;5075209;28;1000;-32
2022/06/23 09:32:17;;;;;;;;;;;;;;;28.96;32.27;100284.16;5068320;28;1219;-34
2022/06/23 09:34:45;;;;;;;;;;;;;;;28.92;32.11;100265.84;5059002;28;950;-34
2022/06/23 09:37:11;;;;;;;;;;;;;;;29.07;32.59;100276.50;5055492;28;878;-33
2022/06/23 09:39:55;;;;;;;;;;;;;;;29.01;31.52;100272.75;5073691;28;1088;-33
2022/06/23 09:42:38;;;;;;;;;;;;;;;28.95;31.93;100268.13;5065349;28;1068;-35
2022/06/23 09:45:22;;;;;;;;;;;;;;;29.11;31.98;100271.50;5069338;28;1211;-31
2022/06/23 09:48:05;;;;;;;;;;;;;;;29.14;32.10;100258.41;5067330;28;1235;-33
2022/06/23 09:50:46;;;;;;;;;;;;;;;29.18;31.76;100267.75;5070449;28;1038;-33
2022/06/23 09:53:24;;;;;;;;;;;;;;;29.04;30.84;100266.94;5074336;28;1207;-36
2022/06/23 09:55:55;;;;;;;;;;;;;;;28.92;30.54;100263.97;5074701;28;938;-33
2022/06/23 09:58:20;;;;;;;;;;;;;;;29.01;31.55;100269.22;5073468;28;1166;-31
2022/06/23 10:00:49;;;;;;;;;;;;;;;29.00;30.92;100267.53;5075363;28;1893;-32
2022/06/23 10:03:29;;;;;;;;;;;;;;;29.16;31.06;100266.31;5066851;28;1024;-33
2022/06/23 10:06:13;;;;;;;;;;;;;;;29.11;31.59;100272.34;5064724;28;1278;-36
2022/06/23 10:08:45;;;;;;;;;;;;;;;29.02;31.85;100271.72;5066974;28;1270;-32
2022/06/23 10:11:13;;;;;;;;;;;;;;;29.11;32.07;100268.81;5066720;28;1282;-32
2022/06/23 10:13:47;;;;;;;;;;;;;;;29.07;32.20;100269.22;5056016;28;1252;-31
2022/06/23 10:16:21;;;;;;;;;;;;;;;29.07;32.16;100266.53;5073056;28;1192;-34
2022/06/23 10:19:05;;;;;;;;;;;;;;;29.06;32.78;100269.44;5072451;28;997;-29
2022/06/23 10:21:37;;;;;;;;;;;;;;;29.00;32.33;100264.81;5066694;28;1910;-34
2022/06/23 10:24:02;;;;;;;;;;;;;;;29.04;32.67;100272.34;5051734;28;1246;-34
2022/06/23 10:26:28;;;;;;;;;;;;;;;29.00;32.78;100268.38;5074880;28;1243;-35
2022/06/23 10:29:08;;;;;;;;;;;;;;;28.94;32.62;100278.16;5073750;28;1000;-31
2022/06/23 10:31:52;;;;;;;;;;;;;;;29.02;32.51;100277.13;5075173;28;1182;-34
2022/06/23 10:34:17;;;;;;;;;;;;;;;29.04;33.35;100290.47;5071494;28;956;-36
2022/06/23 10:36:46;;;;;;;;;;;;;;;29.00;32.85;100286.50;5074578;28;1053;-31
2022/06/23 10:39:30;;;;;;;;;;;;;;;29.02;32.96;100285.25;5078377;28;1100;-31
2022/06/23 10:42:13;;;;;;;;;;;;;;;28.94;33.35;100297.09;5078445;28;1972;-32
2022/06/23 10:44:57;;;;;;;;;;;;;;;28.91;32.76;100293.97;5074596;28;1013;-33
2022/06/23 10:48:01;;;;;;;;;;;;;;;28.99;33.01;100295.66;5075908;28;1024;-35
2022/06/23 10:50:40;;;;;;;;;;;;;;;28.98;33.14;100299.44;5006980;28;1377;-32
2022/06/23 10:53:06;;;;;;;;;;;;;;;28.85;33.66;100299.16;4997459;28;1016;-33
2022/06/23 10:55:46;;;;;;;;;;;;;;;28.98;33.18;100302.94;5051226;28;1137;-29
2022/06/23 10:58:16;;;;;;;;;;;;;;;28.87;32.66;100307.06;5056981;28;1062;-35
2022/06/23 11:00:47;;;;;;;;;;;;;;;28.96;33.29;100302.31;5052009;28;1905;-35
2022/06/23 11:03:23;;;;;;;;;;;;;;;28.90;33.18;100303.97;5071961;28;1085;-30
2022/06/23 11:05:55;;;;;;;;;;;;;;;28.90;33.11;100305.81;5069189;28;1196;-34
2022/06/23 11:08:39;;;;;;;;;;;;;;;28.75;32.92;100308.72;5039497;28;1413;-33
2022/06/23 11:11:18;;;;;;;;;;;;;;;28.77;32.62;100306.63;5075504;28;1196;-28
2022/06/23 11:14:20;;;;;;;;;;;;;;;28.85;33.29;100310.00;5076169;28;977;-31
2022/06/23 11:16:54;;;;;;;;;;;;;;;28.87;32.56;100312.50;4999059;28;1337;-33
2022/06/23 11:19:31;;;;;;;;;;;;;;;28.91;33.44;100304.81;5048377;28;1408;-34
2022/06/23 11:22:03;;;;;;;;;;;;;;;28.91;33.04;100312.91;5076504;28;1973;-33
2022/06/23 11:24:52;;;;;;;;;;;;;;;28.91;33.00;100311.03;5061650;28;1057;-32
2022/06/23 11:27:23;;;;;;;;;;;;;;;28.90;32.93;100314.78;5075549;28;1176;-30
2022/06/23 11:29:54;;;;;;;;;;;;;;;28.92;33.04;100317.28;5077509;28;1266;-32
2022/06/23 11:32:37;;;;;;;;;;;;;;;29.00;32.72;100321.69;5059586;28;1247;-31
2022/06/23 11:35:11;;;;;;;;;;;;;;;28.89;32.43;100317.69;5059633;28;1175;-32
2022/06/23 11:37:36;;;;;;;;;;;;;;;28.95;32.93;100316.88;5078120;28;1132;-31
2022/06/23 11:40:07;;;;;;;;;;;;;;;28.98;32.72;100321.09;5078070;28;1958;-30
2022/06/23 11:42:44;;;;;;;;;;;;;;;28.87;32.33;100308.94;5059110;28;1132;-30
2022/06/23 11:45:16;;;;;;;;;;;;;;;28.96;32.73;100319.38;5059433;28;1239;-32
2022/06/23 11:47:41;;;;;;;;;;;;;;;28.95;32.27;100323.13;5077676;28;1329;-33
2022/06/23 11:50:13;;;;;;;;;;;;;;;28.92;32.50;100318.13;5076339;28;1254;-31
2022/06/23 11:52:38;;;;;;;;;;;;;;;29.02;32.77;100312.34;5074935;28;1196;-30
2022/06/23 11:55:12;;;;;;;;;;;;;;;28.92;32.52;100312.72;5077832;28;1340;-32
2022/06/23 11:57:38;;;;;;;;;;;;;;;28.91;32.72;100311.03;5073815;28;945;-34
2022/06/23 12:00:19;;;;;;;;;;;;;;;28.93;32.91;100305.41;5073540;28;1902;-35
2022/06/23 12:02:56;;;;;;;;;;;;;;;28.91;32.64;100296.69;5074305;28;937;-30
2022/06/23 12:05:37;;;;;;;;;;;;;;;29.18;32.08;100297.53;5071075;28;1100;-33
2022/06/23 12:08:12;;;;;;;;;;;;;;;29.06;31.84;100291.91;5075599;28;1004;-30
2022/06/23 12:10:38;;;;;;;;;;;;;;;29.01;32.77;100286.28;5056911;28;1232;-32
2022/06/23 12:13:03;;;;;;;;;;;;;;;28.96;32.61;100273.34;5058409;28;1072;-32
2022/06/23 12:15:32;;;;;;;;;;;;;;;28.96;32.58;100278.75;5078093;28;1135;-34
2022/06/23 12:18:08;;;;;;;;;;;;;;;28.97;32.84;100268.81;5053525;28;961;-32
2022/06/23 12:20:40;;;;;;;;;;;;;;;28.88;32.38;100275.44;5070003;28;1910;-33
2022/06/23 12:23:06;;;;;;;;;;;;;;;28.90;33.19;100276.03;5056084;28;1266;-30
2022/06/23 12:25:35;;;;;;;;;;;;;;;29.01;32.94;100270.03;5077456;28;957;-30
2022/06/23 12:28:00;;;;;;;;;;;;;;;28.91;32.86;100266.91;5071018;28;1024;-32
2022/06/23 12:30:26;;;;;;;;;;;;;;;28.91;32.84;100273.13;5070519;28;1192;-31
2022/06/23 12:33:10;;;;;;;;;;;;;;;28.83;32.62;100278.75;5049380;28;1056;-30
2022/06/23 12:35:43;;;;;;;;;;;;;;;28.76;32.88;100277.91;5074609;28;1024;-31
2022/06/23 12:38:12;;;;;;;;;;;;;;;28.75;33.28;100279.78;5075356;28;1017;-31
2022/06/23 12:40:40;;;;;;;;;;;;;;;28.71;32.81;100279.34;5055606;28;1957;-29
2022/06/23 12:43:11;;;;;;;;;;;;;;;28.82;33.45;100291.47;5055202;28;1084;-30
2022/06/23 12:45:36;;;;;;;;;;;;;;;28.71;33.59;100289.38;5076904;28;1048;-32
2022/06/23 12:48:17;;;;;;;;;;;;;;;28.69;33.79;100294.97;5073241;28;942;-34
2022/06/23 12:50:51;;;;;;;;;;;;;;;28.70;33.93;100295.78;5070225;28;1044;-30
2022/06/23 12:53:21;;;;;;;;;;;;;;;28.66;32.89;100289.13;5071514;28;1156;-29
2022/06/23 12:55:53;;;;;;;;;;;;;;;28.78;33.72;100290.19;5054628;28;1147;-33
2022/06/23 12:58:21;;;;;;;;;;;;;;;28.75;33.77;100300.59;5074496;28;1183;-30
2022/06/23 13:01:05;;;;;;;;;;;;;;;28.70;33.31;100293.94;5051065;28;1961;-35
2022/06/23 13:03:32;;;;;;;;;;;;;;;28.70;34.04;100298.50;5068108;28;1160;-32
2022/06/23 13:06:17;;;;;;;;;;;;;;;28.72;33.64;100291.03;5048158;28;1254;-34
2022/06/23 13:08:47;;;;;;;;;;;;;;;28.68;34.03;100295.16;5071009;28;1169;-33
2022/06/23 13:11:14;;;;;;;;;;;;;;;28.72;33.47;100297.28;5074696;28;1052;-34
2022/06/23 13:13:43;;;;;;;;;;;;;;;28.82;33.65;100299.59;5075801;28;1004;-32
2022/06/23 13:16:18;;;;;;;;;;;;;;;28.82;33.63;100294.16;5076446;28;1154;-32